createdAt,value
2018-09-21T00:01:12.205Z,18.50
2018-09-21T00:03:43.011Z,18.70
2018-09-21T00:06:12.096Z,18.80
2018-09-21T00:08:41.171Z,18.80
2018-09-21T00:11:10.195Z,18.80
2018-09-21T00:13:38.807Z,18.80
2018-09-21T00:16:07.303Z,18.80
2018-09-21T00:18:35.795Z,18.80
2018-09-21T00:21:04.328Z,18.90
2018-09-21T00:23:32.976Z,18.90
2018-09-21T00:26:01.428Z,18.90
2018-09-21T00:28:30.234Z,18.90
2018-09-21T00:30:58.721Z,18.90
2018-09-21T00:33:27.272Z,18.90
2018-09-21T00:35:55.675Z,19.00
2018-09-21T00:38:24.113Z,19.00
2018-09-21T00:40:52.595Z,19.00
2018-09-21T00:43:21.102Z,19.00
2018-09-21T00:45:49.603Z,19.00
2018-09-21T00:48:18.162Z,19.00
2018-09-21T00:50:46.656Z,18.90
2018-09-21T00:53:15.120Z,18.90
2018-09-21T00:55:43.704Z,18.90
2018-09-21T00:58:12.244Z,18.90
2018-09-21T01:00:40.766Z,19.00
2018-09-21T01:03:09.307Z,19.10
2018-09-21T01:05:37.898Z,19.10
2018-09-21T01:08:06.371Z,19.20
2018-09-21T01:10:34.882Z,19.20
2018-09-21T01:13:03.326Z,19.20
2018-09-21T01:15:31.745Z,19.20
2018-09-21T01:18:00.154Z,19.20
2018-09-21T01:20:28.575Z,19.20
2018-09-21T01:22:57.099Z,19.10
2018-09-21T01:25:25.602Z,19.30
2018-09-21T01:27:54.130Z,19.30
2018-09-21T01:30:22.623Z,19.30
2018-09-21T01:32:51.114Z,19.20
2018-09-21T01:35:19.588Z,19.20
2018-09-21T01:37:48.053Z,19.20
2018-09-21T01:40:16.456Z,19.20
2018-09-21T01:42:44.913Z,19.30
2018-09-21T01:45:13.348Z,19.30
2018-09-21T01:47:41.748Z,19.20
2018-09-21T01:50:10.215Z,19.20
2018-09-21T01:52:38.653Z,19.20
2018-09-21T01:55:07.042Z,19.10
2018-09-21T01:57:35.629Z,19.10
2018-09-21T02:00:04.341Z,19.20
2018-09-21T02:02:32.930Z,19.20
2018-09-21T02:05:01.486Z,19.10
2018-09-21T02:07:30.045Z,19.10
2018-09-21T02:09:58.583Z,19.10
2018-09-21T02:12:27.139Z,19.10
2018-09-21T02:14:55.552Z,19.00
2018-09-21T02:17:24.139Z,19.00
2018-09-21T02:19:52.672Z,18.90
2018-09-21T02:22:21.193Z,18.80
2018-09-21T02:24:49.771Z,18.70
2018-09-21T02:27:18.267Z,18.70
2018-09-21T02:29:46.773Z,18.70
2018-09-21T02:32:15.333Z,18.60
2018-09-21T02:34:43.951Z,18.60
2018-09-21T02:37:12.527Z,18.60
2018-09-21T02:39:41.080Z,18.60
2018-09-21T02:42:09.580Z,18.50
2018-09-21T02:44:38.140Z,18.50
2018-09-21T02:47:06.660Z,18.40
2018-09-21T02:49:35.281Z,18.30
2018-09-21T02:52:03.787Z,18.20
2018-09-21T02:54:32.239Z,18.00
2018-09-21T02:57:00.718Z,18.00
2018-09-21T02:59:29.326Z,17.90
2018-09-21T03:01:57.919Z,17.80
2018-09-21T03:04:26.488Z,17.70
2018-09-21T03:06:55.021Z,17.60
2018-09-21T03:09:23.571Z,17.40
2018-09-21T03:11:52.126Z,17.40
2018-09-21T03:14:20.639Z,17.40
2018-09-21T03:16:49.128Z,17.40
2018-09-21T03:19:17.842Z,17.60
2018-09-21T03:21:46.252Z,17.70
2018-09-21T03:24:14.771Z,17.80
2018-09-21T03:26:43.454Z,17.90
2018-09-21T03:29:13.046Z,17.80
2018-09-21T03:31:42.026Z,17.70
2018-09-21T03:34:10.605Z,17.70
2018-09-21T03:36:39.719Z,17.80
2018-09-21T03:39:09.067Z,17.80
2018-09-21T03:41:37.953Z,17.70
2018-09-21T03:44:06.534Z,17.60
2018-09-21T03:46:35.151Z,17.60
2018-09-21T03:49:03.737Z,17.60
2018-09-21T03:51:32.335Z,17.60
2018-09-21T03:54:00.958Z,17.50
2018-09-21T03:56:29.604Z,17.50
2018-09-21T03:58:58.208Z,17.60
2018-09-21T04:01:26.743Z,17.70
2018-09-21T04:03:55.415Z,17.70
2018-09-21T04:06:23.946Z,17.70
2018-09-21T04:08:52.588Z,17.70
2018-09-21T04:11:21.110Z,17.80
2018-09-21T04:13:49.754Z,17.80
2018-09-21T04:16:18.290Z,17.70
2018-09-21T04:18:46.909Z,17.60
2018-09-21T04:21:15.579Z,17.60
2018-09-21T04:23:44.242Z,17.70
2018-09-21T04:26:12.904Z,17.70
2018-09-21T04:28:41.522Z,17.70
2018-09-21T04:31:10.135Z,17.80
2018-09-21T04:33:38.750Z,17.80
2018-09-21T04:36:07.464Z,17.90
2018-09-21T04:38:35.963Z,17.80
2018-09-21T04:41:04.452Z,17.80
2018-09-21T04:43:32.987Z,17.80
2018-09-21T04:46:01.490Z,17.90
2018-09-21T04:48:30.056Z,17.90
2018-09-21T04:50:58.649Z,18.00
2018-09-21T04:53:27.210Z,18.00
2018-09-21T04:55:55.763Z,18.00
2018-09-21T04:58:24.373Z,18.00
2018-09-21T05:00:52.958Z,17.90
2018-09-21T05:03:21.514Z,17.90
2018-09-21T05:05:50.135Z,17.90
2018-09-21T05:08:18.670Z,17.90
2018-09-21T05:10:47.248Z,17.90
2018-09-21T05:13:15.901Z,17.90
2018-09-21T05:15:44.484Z,17.90
2018-09-21T05:18:12.952Z,17.90
2018-09-21T05:20:41.540Z,17.90
2018-09-21T05:23:10.182Z,17.90
2018-09-21T05:25:38.791Z,17.90
2018-09-21T05:28:07.279Z,17.90
2018-09-21T05:30:36.038Z,17.80
2018-09-21T05:33:04.588Z,17.70
2018-09-21T05:35:33.129Z,17.70
2018-09-21T05:38:01.945Z,17.80
2018-09-21T05:40:30.604Z,17.90
2018-09-21T05:42:59.213Z,17.90
2018-09-21T05:45:27.736Z,18.00
2018-09-21T05:47:56.151Z,18.20
2018-09-21T05:50:24.611Z,18.20
2018-09-21T05:52:53.064Z,18.40
2018-09-21T05:55:21.654Z,18.50
2018-09-21T05:57:50.226Z,18.60
2018-09-21T06:00:18.759Z,18.70
2018-09-21T06:02:47.260Z,18.80
2018-09-21T06:05:15.692Z,18.90
2018-09-21T06:07:44.236Z,18.90
2018-09-21T06:10:12.651Z,18.90
2018-09-21T06:12:41.251Z,18.90
2018-09-21T06:15:10.653Z,19.00
2018-09-21T06:17:39.347Z,18.90
2018-09-21T06:20:12.185Z,18.80
2018-09-21T06:22:44.981Z,18.80
2018-09-21T06:25:05.779Z,18.90
2018-09-21T06:27:34.441Z,19.00
2018-09-21T06:30:03.162Z,19.00
2018-09-21T06:32:31.726Z,19.10
2018-09-21T06:35:00.308Z,19.20
2018-09-21T06:37:28.928Z,19.20
2018-09-21T06:39:57.451Z,19.30
2018-09-21T06:42:26.035Z,19.30
2018-09-21T06:44:55.560Z,19.20
2018-09-21T06:47:24.150Z,19.20
2018-09-21T06:49:52.956Z,19.10
2018-09-21T06:52:21.490Z,19.10
2018-09-21T06:54:50.090Z,19.10
2018-09-21T06:57:18.710Z,19.00
2018-09-21T06:59:47.367Z,19.00
2018-09-21T07:02:15.984Z,19.00
2018-09-21T07:04:44.600Z,19.00
2018-09-21T07:07:13.278Z,19.10
2018-09-21T07:09:41.927Z,19.10
2018-09-21T07:12:10.464Z,19.10
2018-09-21T07:14:39.137Z,19.10
2018-09-21T07:17:07.755Z,19.00
2018-09-21T07:19:36.435Z,18.90
2018-09-21T07:22:06.015Z,18.80
2018-09-21T07:24:34.732Z,18.90
2018-09-21T07:27:03.350Z,19.00
2018-09-21T07:29:32.003Z,19.00
2018-09-21T07:32:00.774Z,19.10
2018-09-21T07:34:29.396Z,19.10
2018-09-21T07:36:58.024Z,19.30
2018-09-21T07:39:26.563Z,19.30
2018-09-21T07:41:55.147Z,19.40
2018-09-21T07:44:23.640Z,19.40
2018-09-21T07:46:52.175Z,19.40
2018-09-21T07:49:20.650Z,19.40
2018-09-21T07:51:49.159Z,19.50
2018-09-21T07:54:17.667Z,19.50
2018-09-21T07:56:46.204Z,19.40
2018-09-21T07:59:14.723Z,19.40
2018-09-21T08:01:43.280Z,19.40
2018-09-21T08:04:11.802Z,19.40
2018-09-21T08:06:40.332Z,19.40
2018-09-21T08:09:09.959Z,19.50
2018-09-21T08:11:38.608Z,19.80
2018-09-21T08:14:07.719Z,19.90
2018-09-21T08:16:37.089Z,20.00
2018-09-21T08:19:06.061Z,20.00
2018-09-21T08:21:34.581Z,20.00
2018-09-21T08:24:03.613Z,20.00
2018-09-21T08:26:32.363Z,19.90
2018-09-21T08:29:01.022Z,20.00
2018-09-21T08:31:29.569Z,20.10
2018-09-21T08:33:58.031Z,20.10
2018-09-21T08:36:26.550Z,20.20
2018-09-21T08:38:55.057Z,20.20
2018-09-21T08:41:23.531Z,20.20
2018-09-21T08:43:52.052Z,20.20
2018-09-21T08:46:20.542Z,20.30
2018-09-21T08:48:49.051Z,20.40
2018-09-21T08:51:17.555Z,20.40
2018-09-21T08:53:46.265Z,20.40
2018-09-21T08:56:14.795Z,20.40
2018-09-21T08:58:43.246Z,20.40
2018-09-21T09:01:11.867Z,20.40
2018-09-21T09:03:40.521Z,20.50
2018-09-21T09:06:09.059Z,20.50
2018-09-21T09:08:37.692Z,20.50
2018-09-21T09:11:06.520Z,20.60
2018-09-21T09:13:35.083Z,20.40
2018-09-21T09:16:03.578Z,20.40
2018-09-21T09:18:32.111Z,20.40
2018-09-21T09:21:00.737Z,20.50
2018-09-21T09:23:29.247Z,20.50
2018-09-21T09:25:57.803Z,20.40
2018-09-21T09:28:26.287Z,20.30
2018-09-21T09:30:54.741Z,20.20
2018-09-21T09:33:23.225Z,20.30
2018-09-21T09:35:51.727Z,20.70
2018-09-21T09:38:20.196Z,21.10
2018-09-21T09:40:48.715Z,21.30
2018-09-21T09:43:17.259Z,21.70
2018-09-21T09:45:45.806Z,22.00
2018-09-21T09:48:14.382Z,21.90
2018-09-21T09:50:42.875Z,21.80
2018-09-21T09:53:11.386Z,21.50
2018-09-21T09:55:39.870Z,21.20
2018-09-21T09:58:08.421Z,21.00
2018-09-21T10:00:43.141Z,21.00
2018-09-21T10:03:11.639Z,20.90
2018-09-21T10:05:44.026Z,21.00
2018-09-21T10:08:13.495Z,20.80
2018-09-21T10:10:42.207Z,20.70
2018-09-21T10:13:10.952Z,20.50
2018-09-21T10:15:39.683Z,20.60
2018-09-21T10:18:08.485Z,20.30
2018-09-21T10:20:37.113Z,20.10
2018-09-21T10:23:05.663Z,20.00
2018-09-21T10:25:34.170Z,19.80
2018-09-21T10:28:02.931Z,19.60
2018-09-21T10:30:31.462Z,19.50
2018-09-21T10:32:59.966Z,19.40
2018-09-21T10:35:28.720Z,19.50
2018-09-21T10:37:57.139Z,19.50
2018-09-21T10:40:25.838Z,19.30
2018-09-21T10:42:54.304Z,19.20
2018-09-21T10:45:22.778Z,19.30
2018-09-21T10:47:51.562Z,19.20
2018-09-21T10:50:20.090Z,19.00
2018-09-21T10:52:48.696Z,18.80
2018-09-21T10:55:17.118Z,18.60
2018-09-21T10:57:45.802Z,18.10
2018-09-21T11:00:14.220Z,17.70
2018-09-21T11:02:42.729Z,16.90
2018-09-21T11:05:11.249Z,16.00
2018-09-21T11:07:39.892Z,14.60
2018-09-21T11:10:08.442Z,13.60
2018-09-21T11:12:37.173Z,12.80
2018-09-21T11:15:05.869Z,12.30
2018-09-21T11:17:34.531Z,11.90
2018-09-21T11:20:03.132Z,11.50
2018-09-21T11:22:31.929Z,11.30
2018-09-21T11:25:00.517Z,11.10
2018-09-21T11:27:29.116Z,10.90
2018-09-21T11:29:57.711Z,11.00
2018-09-21T11:32:26.288Z,11.00
2018-09-21T11:34:54.880Z,10.80
2018-09-21T11:37:23.410Z,10.80
2018-09-21T11:39:51.968Z,10.80
2018-09-21T11:42:20.488Z,10.70
2018-09-21T11:44:49.098Z,10.70
2018-09-21T11:47:17.756Z,10.70
2018-09-21T11:49:46.132Z,10.90
2018-09-21T11:52:14.683Z,11.10
2018-09-21T11:54:43.168Z,11.20
2018-09-21T11:57:11.705Z,11.30
2018-09-21T11:59:40.206Z,11.20
2018-09-21T12:02:08.675Z,11.20
2018-09-21T12:04:37.168Z,11.20
2018-09-21T12:07:05.668Z,11.10
2018-09-21T12:09:34.131Z,11.10
2018-09-21T12:12:02.719Z,11.00
2018-09-21T12:14:31.196Z,11.00
2018-09-21T12:16:59.847Z,11.00
2018-09-21T12:19:28.429Z,11.20
2018-09-21T12:21:57.020Z,11.30
2018-09-21T12:24:25.584Z,11.60
2018-09-21T12:26:54.235Z,11.70
2018-09-21T12:29:22.859Z,11.50
2018-09-21T12:31:51.582Z,11.60
2018-09-21T12:34:20.183Z,11.70
2018-09-21T12:36:48.807Z,11.80
2018-09-21T12:39:17.346Z,12.10
2018-09-21T12:41:45.930Z,11.90
2018-09-21T12:44:15.844Z,11.80
2018-09-21T12:46:44.424Z,11.50
2018-09-21T12:49:12.891Z,11.40
2018-09-21T12:51:41.415Z,11.30
2018-09-21T12:54:09.897Z,11.30
2018-09-21T12:56:38.519Z,11.30
2018-09-21T12:59:07.036Z,11.40
2018-09-21T13:01:35.563Z,11.40
2018-09-21T13:04:04.152Z,11.70
2018-09-21T13:06:32.628Z,11.90
2018-09-21T13:09:01.162Z,11.90
2018-09-21T13:11:29.654Z,11.90
2018-09-21T13:13:58.177Z,11.80
2018-09-21T13:16:28.229Z,11.80
2018-09-21T13:18:56.819Z,12.10
2018-09-21T13:21:26.393Z,12.50
2018-09-21T13:23:55.002Z,12.80
2018-09-21T13:26:24.536Z,12.70
2018-09-21T13:28:53.090Z,12.90
2018-09-21T13:31:21.573Z,12.60
2018-09-21T13:33:51.590Z,12.50
2018-09-21T13:36:20.197Z,12.60
2018-09-21T13:38:49.521Z,12.70
2018-09-21T13:41:17.978Z,13.20
2018-09-21T13:43:50.354Z,13.50
2018-09-21T13:46:18.906Z,13.40
2018-09-21T13:48:47.718Z,13.40
2018-09-21T13:51:17.209Z,13.20
2018-09-21T13:53:45.672Z,12.90
2018-09-21T13:56:15.259Z,12.60
2018-09-21T13:58:45.565Z,12.20
2018-09-21T14:01:14.123Z,12.00
2018-09-21T14:03:44.465Z,11.90
2018-09-21T14:06:13.114Z,11.80
2018-09-21T14:08:42.944Z,11.80
2018-09-21T14:11:13.271Z,11.80
2018-09-21T14:13:42.012Z,11.80
2018-09-21T14:16:11.242Z,11.80
2018-09-21T14:18:39.792Z,11.70
2018-09-21T14:21:10.013Z,11.70
2018-09-21T14:23:40.624Z,11.60
2018-09-21T14:26:09.118Z,11.50
2018-09-21T14:28:38.697Z,11.50
2018-09-21T14:31:07.269Z,11.50
2018-09-21T14:33:37.962Z,11.50
2018-09-21T14:36:06.701Z,11.50
2018-09-21T14:38:35.258Z,11.60
2018-09-21T14:41:05.087Z,11.70
2018-09-21T14:43:34.634Z,11.60
2018-09-21T14:46:03.148Z,11.70
2018-09-21T14:48:33.484Z,11.80
2018-09-21T14:51:02.112Z,11.70
2018-09-21T14:53:30.756Z,11.70
2018-09-21T14:55:59.252Z,11.70
2018-09-21T14:58:29.118Z,11.60
2018-09-21T15:00:58.693Z,11.60
2018-09-21T15:03:28.936Z,11.60
2018-09-21T15:05:57.705Z,11.50
2018-09-21T15:08:26.267Z,11.60
2018-09-21T15:10:54.790Z,11.60
2018-09-21T15:13:23.181Z,11.50
2018-09-21T15:15:52.010Z,11.50
2018-09-21T15:18:21.792Z,11.40
2018-09-21T15:20:50.791Z,11.30
2018-09-21T15:23:20.715Z,11.30
2018-09-21T15:25:51.739Z,11.20
2018-09-21T15:28:22.281Z,11.20
2018-09-21T15:30:51.045Z,11.20
2018-09-21T15:33:19.663Z,11.20
2018-09-21T15:35:48.130Z,11.30
2018-09-21T15:38:16.686Z,11.30
2018-09-21T15:40:45.224Z,11.30
2018-09-21T15:43:13.648Z,11.30
2018-09-21T15:45:42.335Z,11.20
2018-09-21T15:48:12.455Z,11.10
2018-09-21T15:50:41.404Z,11.20
2018-09-21T15:53:10.092Z,11.20
2018-09-21T15:55:39.942Z,11.30
2018-09-21T15:58:08.416Z,11.40
2018-09-21T16:00:37.413Z,11.30
2018-09-21T16:03:05.971Z,11.40
2018-09-21T16:05:34.486Z,11.50
2018-09-21T16:08:03.243Z,11.70
2018-09-21T16:10:31.768Z,11.70
2018-09-21T16:13:00.298Z,11.70
2018-09-21T16:15:28.823Z,11.70
2018-09-21T16:17:57.390Z,11.60
2018-09-21T16:20:25.980Z,11.50
2018-09-21T16:22:54.522Z,11.40
2018-09-21T16:25:23.190Z,11.20
2018-09-21T16:27:51.723Z,11.20
2018-09-21T16:30:20.380Z,11.10
2018-09-21T16:32:48.924Z,11.00
2018-09-21T16:35:18.455Z,10.90
2018-09-21T16:37:47.004Z,11.00
2018-09-21T16:40:15.573Z,10.90
2018-09-21T16:42:45.255Z,10.90
2018-09-21T16:45:13.867Z,10.90
2018-09-21T16:47:42.427Z,10.70
2018-09-21T16:50:13.365Z,10.70
2018-09-21T16:52:41.944Z,10.70
2018-09-21T16:55:10.435Z,10.70
2018-09-21T16:57:40.570Z,10.70
2018-09-21T17:00:09.358Z,10.70
2018-09-21T17:02:38.155Z,10.80
2018-09-21T17:05:08.277Z,10.70
2018-09-21T17:07:36.832Z,10.70
2018-09-21T17:10:08.161Z,10.50
2018-09-21T17:12:38.041Z,10.40
2018-09-21T17:15:06.606Z,10.30
2018-09-21T17:17:36.133Z,10.20
2018-09-21T17:20:05.866Z,10.10
2018-09-21T17:22:34.406Z,10.10
2018-09-21T17:25:04.433Z,9.90
2018-09-21T17:27:33.734Z,9.90
2018-09-21T17:30:03.455Z,9.80
2018-09-21T17:32:31.954Z,9.60
2018-09-21T17:35:02.235Z,9.50
2018-09-21T17:37:30.869Z,9.50
2018-09-21T17:39:59.360Z,9.50
2018-09-21T17:42:29.644Z,9.40
2018-09-21T17:44:58.283Z,9.40
2018-09-21T17:47:26.832Z,9.50
2018-09-21T17:49:56.699Z,9.50
2018-09-21T17:52:26.234Z,9.50
2018-09-21T17:54:56.083Z,9.40
2018-09-21T17:57:24.984Z,9.30
2018-09-21T17:59:53.531Z,9.30
2018-09-21T18:02:23.356Z,9.30
2018-09-21T18:04:51.805Z,9.30
2018-09-21T18:07:21.298Z,9.20
2018-09-21T18:09:51.849Z,9.10
2018-09-21T18:12:20.663Z,9.00
2018-09-21T18:14:49.819Z,9.00
2018-09-21T18:17:18.508Z,9.00
2018-09-21T18:19:48.344Z,8.80
2018-09-21T18:22:16.774Z,8.80
2018-09-21T18:24:46.641Z,8.70
2018-09-21T18:27:15.195Z,8.70
2018-09-21T18:29:45.362Z,8.90
2018-09-21T18:32:13.838Z,9.00
2018-09-21T18:34:44.222Z,9.00
2018-09-21T18:37:14.102Z,9.00
2018-09-21T18:39:42.591Z,9.10
2018-09-21T18:42:11.923Z,9.10
2018-09-21T18:44:40.650Z,9.00
2018-09-21T18:47:10.383Z,9.10
2018-09-21T18:49:38.991Z,9.10
2018-09-21T18:52:07.547Z,9.10
2018-09-21T18:54:38.131Z,9.00
2018-09-21T18:57:06.659Z,9.00
2018-09-21T18:59:36.281Z,9.00
2018-09-21T19:02:04.807Z,9.00
2018-09-21T19:04:34.619Z,9.00
2018-09-21T19:07:06.782Z,9.00
2018-09-21T19:09:36.495Z,8.90
2018-09-21T19:12:05.100Z,8.90
2018-09-21T19:14:34.497Z,8.80
2018-09-21T19:17:02.894Z,8.70
2018-09-21T19:19:31.265Z,8.70
2018-09-21T19:21:59.747Z,8.70
2018-09-21T19:24:29.016Z,8.80
2018-09-21T19:26:59.623Z,8.90
2018-09-21T19:29:28.448Z,9.00
2018-09-21T19:31:57.104Z,9.00
2018-09-21T19:34:25.471Z,9.10
2018-09-21T19:36:54.111Z,9.10
2018-09-21T19:39:22.630Z,9.10
2018-09-21T19:41:51.246Z,9.00
2018-09-21T19:44:19.811Z,9.00
2018-09-21T19:46:48.380Z,9.00
2018-09-21T19:49:16.925Z,9.10
2018-09-21T19:51:45.520Z,9.10
2018-09-21T19:54:14.089Z,9.10
2018-09-21T19:56:44.911Z,9.10
2018-09-21T19:59:13.795Z,9.10
2018-09-21T20:01:43.535Z,9.10
2018-09-21T20:04:18.507Z,9.10
2018-09-21T20:06:47.045Z,9.10
2018-09-21T20:09:15.599Z,9.20
2018-09-21T20:11:44.863Z,9.10
2018-09-21T20:14:14.981Z,9.20
2018-09-21T20:16:45.903Z,9.20
2018-09-21T20:19:14.415Z,9.10
2018-09-21T20:21:43.143Z,9.10
2018-09-21T20:24:11.618Z,9.10
2018-09-21T20:26:40.073Z,9.20
2018-09-21T20:29:08.759Z,9.20
2018-09-21T20:31:43.066Z,9.20
2018-09-21T20:34:11.600Z,9.20
2018-09-21T20:36:40.437Z,9.20
2018-09-21T20:39:09.614Z,9.20
2018-09-21T20:41:40.027Z,9.20
2018-09-21T20:44:08.689Z,9.30
2018-09-21T20:46:44.610Z,9.30
2018-09-21T20:49:13.319Z,9.30
2018-09-21T20:51:44.017Z,9.30
2018-09-21T20:54:12.584Z,9.30
2018-09-21T20:56:41.992Z,9.30
2018-09-21T20:59:12.858Z,9.30
2018-09-21T21:01:41.422Z,9.30
2018-09-21T21:04:09.908Z,9.30
2018-09-21T21:06:38.565Z,9.30
2018-09-21T21:09:08.212Z,9.40
2018-09-21T21:11:36.832Z,9.40
2018-09-21T21:14:05.411Z,9.40
2018-09-21T21:16:34.125Z,9.40
2018-09-21T21:19:05.055Z,9.40
2018-09-21T21:21:35.190Z,9.30
2018-09-21T21:24:03.688Z,9.30
2018-09-21T21:26:32.199Z,9.20
2018-09-21T21:29:03.662Z,9.10
2018-09-21T21:31:32.281Z,9.10
2018-09-21T21:34:00.859Z,9.10
2018-09-21T21:36:30.890Z,9.00
2018-09-21T21:39:00.449Z,9.00
2018-09-21T21:41:29.044Z,9.10
2018-09-21T21:44:00.253Z,9.10
2018-09-21T21:46:28.904Z,9.10
2018-09-21T21:48:57.411Z,9.10
2018-09-21T21:51:26.236Z,9.00
2018-09-21T21:53:56.359Z,9.00
2018-09-21T21:56:25.320Z,8.90
2018-09-21T21:58:54.837Z,8.90
2018-09-21T22:01:29.909Z,8.90
2018-09-21T22:03:58.363Z,8.90
2018-09-21T22:06:34.647Z,8.90
2018-09-21T22:09:06.805Z,9.00
2018-09-21T22:11:41.848Z,9.00
2018-09-21T22:14:11.910Z,9.00
2018-09-21T22:16:40.356Z,9.00
2018-09-21T22:19:12.689Z,9.00
2018-09-21T22:21:41.314Z,8.90
2018-09-21T22:24:09.748Z,8.90
2018-09-21T22:26:40.591Z,9.00
2018-09-21T22:29:09.164Z,9.10
2018-09-21T22:31:37.668Z,9.10
2018-09-21T22:34:08.381Z,9.10
2018-09-21T22:36:38.786Z,9.00
2018-09-21T22:39:08.319Z,9.00
2018-09-21T22:41:40.461Z,9.00
2018-09-21T22:44:09.295Z,9.10
2018-09-21T22:46:37.839Z,9.10
2018-09-21T22:49:11.607Z,9.10
2018-09-21T22:51:40.080Z,9.20
2018-09-21T22:54:08.545Z,9.20
2018-09-21T22:56:38.770Z,9.10
2018-09-21T22:59:07.324Z,9.10
2018-09-21T23:01:35.870Z,9.00
2018-09-21T23:04:07.353Z,9.00
2018-09-21T23:06:37.510Z,9.00
2018-09-21T23:09:08.114Z,8.80
2018-09-21T23:11:40.414Z,8.80
2018-09-21T23:14:09.439Z,8.80
2018-09-21T23:16:38.975Z,8.70
2018-09-21T23:19:09.721Z,8.60
2018-09-21T23:21:38.519Z,8.60
2018-09-21T23:24:09.929Z,8.50
2018-09-21T23:26:38.658Z,8.60
2018-09-21T23:29:07.201Z,8.70
2018-09-21T23:31:37.700Z,8.70
2018-09-21T23:34:06.259Z,8.60
2018-09-21T23:36:34.802Z,8.70
2018-09-21T23:39:05.045Z,8.70
2018-09-21T23:41:33.574Z,8.80
2018-09-21T23:44:02.044Z,8.80
2018-09-21T23:46:30.565Z,8.80
2018-09-21T23:48:59.057Z,8.90
2018-09-21T23:51:27.479Z,8.90
2018-09-21T23:53:55.964Z,8.90
2018-09-21T23:56:24.526Z,8.90
2018-09-21T23:58:53.014Z,8.90
